首页
METAR-TAF:

METAR-TAF

机场 :

Kununurra, 澳大利亚

纬度: 15-46S, 经度: 128-42E, 海拔: 44米

当前天气观测

该预报发布于41分钟前的01:00 UTC
风速4节,风向东转东南
温度 30°C
湿度 33%
气压 1017 hPa
能见度10公里或以上

METAR: YPKU 310100Z AUTO 12004KT 9999 // NCD 30/12 Q1017

时间: 09:41 (01:41 UTC)

预报

该预报发布于23分钟前的01:18 UTC
预报有效从31日的 02点(UTC)到 31日的 14点(UTC)
风速7节,风向
能见度10公里或以上
1500米以下无云,无积雨云
从 31日的 0900点(UTC)
风速3节,风向多变
能见度10公里或以上
1500米以下无云,无积雨云

TAF: YPKU 310118Z 3102/3114 10007KT CAVOK FM310900 VRB03KT CAVOK

超过4000个机场的气象观测和天气预报(METAR&TAF报告)。

可查询的气象台以黄色和红色小点在地图上表示。

将鼠标移到小点上方,可查看气象台名称。

然后点击查看天气观测和预报。

如需切换地图:点击带黑十字的绿色按钮放大地图;点击带横线的绿色按钮缩小地图;或者点击绿色箭头查看邻近地区的地图。


METAR-TAF: